Time;durP1;ratioP1;P1;durP2;ratioP2;P2;SDS_P1;SDS_P2;PMS_P1;PMS_P2;Temp;Humidity;BMP_temperature;BMP_pressure;BME280_temperature;BME280_humidity;BME280_pressure;Samples;Min_cycle;Max_cycle;Signal;HPM_P1;HPM_P2
2022/04/25 00:00:01;;;;;;;15.50;10.10;;;9.10;99.90;;;;;;5115706;28;20786;-41
2022/04/25 00:02:38;;;;;;;12.13;9.93;;;9.40;99.90;;;;;;5115656;28;20879;-43
2022/04/25 00:05:08;;;;;;;13.63;9.70;;;9.10;99.90;;;;;;5116051;28;20435;-43
2022/04/25 00:07:34;;;;;;;11.63;8.90;;;9.00;99.90;;;;;;5115946;28;20436;-44
2022/04/25 00:10:01;;;;;;;15.50;11.47;;;8.90;99.90;;;;;;5115437;28;20435;-42
2022/04/25 00:12:28;;;;;;;12.60;9.53;;;9.00;99.90;;;;;;5115996;28;20483;-42
2022/04/25 00:14:54;;;;;;;16.47;11.77;;;9.10;99.90;;;;;;5115796;28;20443;-43
2022/04/25 00:17:21;;;;;;;15.13;10.23;;;9.40;99.90;;;;;;5115752;28;20435;-41
2022/04/25 00:19:48;;;;;;;18.10;11.70;;;9.00;99.90;;;;;;5115253;28;20435;-45
2022/04/25 00:22:16;;;;;;;16.77;11.10;;;9.00;99.90;;;;;;5115771;28;20463;-43
2022/04/25 00:24:44;;;;;;;15.50;10.53;;;9.40;99.90;;;;;;5116745;28;20431;-44
2022/04/25 00:27:11;;;;;;;14.37;10.20;;;9.00;99.90;;;;;;5118248;28;20432;-43
2022/04/25 00:29:37;;;;;;;17.20;12.00;;;9.00;99.90;;;;;;5097565;28;20457;-42
2022/04/25 00:32:05;;;;;;;17.57;11.70;;;9.00;99.90;;;;;;5117115;28;20479;-43
2022/04/25 00:34:31;;;;;;;14.00;12.20;;;8.80;99.90;;;;;;5116443;28;20438;-43
2022/04/25 00:36:58;;;;;;;16.13;12.17;;;9.60;99.90;;;;;;5116515;28;20432;-43
2022/04/25 00:39:27;;;;;;;16.87;12.00;;;9.00;99.90;;;;;;5115897;28;20798;-44
2022/04/25 00:41:54;;;;;;;13.00;11.60;;;8.40;99.90;;;;;;5116959;28;21051;-42
2022/04/25 00:44:20;;;;;;;16.90;11.93;;;9.00;99.90;;;;;;5116132;28;20439;-43
2022/04/25 00:46:48;;;;;;;21.20;13.07;;;8.30;99.90;;;;;;5116807;28;20439;-44
2022/04/25 00:49:15;;;;;;;14.87;12.10;;;8.50;99.90;;;;;;5116391;28;20427;-44
2022/04/25 00:51:42;;;;;;;20.23;13.07;;;8.70;99.90;;;;;;5116244;28;20463;-43
2022/04/25 00:54:09;;;;;;;18.40;13.30;;;8.80;99.90;;;;;;5116252;28;20451;-45
2022/04/25 00:56:38;;;;;;;18.47;13.80;;;8.70;99.90;;;;;;5116699;28;20439;-43
2022/04/25 00:59:05;;;;;;;21.30;13.30;;;8.60;99.90;;;;;;5116415;28;20979;-46
2022/04/25 01:01:32;;;;;;;18.43;13.00;;;8.40;99.90;;;;;;5115371;28;21011;-43
2022/04/25 01:03:59;;;;;;;17.60;13.50;;;8.60;99.90;;;;;;5115333;28;20453;-42
2022/04/25 01:06:25;;;;;;;16.87;13.60;;;8.70;99.90;;;;;;5117353;28;20521;-44
2022/04/25 01:08:52;;;;;;;16.90;13.80;;;8.80;99.90;;;;;;5114367;28;20923;-43
2022/04/25 01:11:19;;;;;;;18.90;13.23;;;8.60;99.90;;;;;;5116034;28;20509;-43
2022/04/25 01:13:47;;;;;;;20.57;14.17;;;8.60;99.90;;;;;;5115782;28;20469;-45
2022/04/25 01:16:13;;;;;;;17.60;13.77;;;8.40;99.90;;;;;;5115658;28;20430;-45
2022/04/25 01:18:40;;;;;;;21.30;14.93;;;8.50;99.90;;;;;;5114919;28;20469;-42
2022/04/25 01:21:11;;;;;;;25.63;14.97;;;8.60;99.90;;;;;;5115114;28;20427;-43
2022/04/25 01:29:09;;;;;;;18.13;15.07;;;8.30;99.90;;;;;;5114794;28;20708;-43
2022/04/25 01:31:37;;;;;;;17.03;14.37;;;8.40;99.90;;;;;;5115148;28;20475;-41
2022/04/25 01:34:04;;;;;;;20.50;13.70;;;7.60;99.90;;;;;;5114839;28;21026;-41
2022/04/25 01:36:30;;;;;;;21.30;14.70;;;8.20;99.90;;;;;;5114719;28;20476;-42
2022/04/25 01:38:58;;;;;;;19.83;15.97;;;8.20;99.90;;;;;;5114476;28;20476;-42
2022/04/25 01:41:25;;;;;;;16.70;12.90;;;8.00;99.90;;;;;;5114443;28;20439;-43
2022/04/25 01:43:52;;;;;;;21.37;14.33;;;8.30;99.90;;;;;;5114320;28;20977;-43
2022/04/25 01:46:18;;;;;;;20.20;15.77;;;8.30;99.90;;;;;;5114347;28;20936;-44
2022/04/25 01:48:45;;;;;;;23.43;15.63;;;8.10;99.90;;;;;;5113962;28;20923;-43
2022/04/25 01:51:12;;;;;;;15.80;14.07;;;8.30;99.90;;;;;;5113805;28;20915;-43
2022/04/25 01:53:38;;;;;;;19.97;15.20;;;8.20;99.90;;;;;;5113466;28;20602;-45
2022/04/25 01:56:06;;;;;;;17.00;14.80;;;8.30;99.90;;;;;;5113664;28;20495;-42
2022/04/25 01:58:33;;;;;;;19.20;15.50;;;8.30;99.90;;;;;;5113475;28;20434;-44
2022/04/25 02:01:00;;;;;;;19.20;14.23;;;7.90;99.90;;;;;;5113574;28;20450;-42
2022/04/25 02:03:26;;;;;;;19.20;16.10;;;8.50;99.90;;;;;;5113300;28;20463;-45
2022/04/25 02:05:53;;;;;;;18.80;15.60;;;8.10;99.90;;;;;;5113581;28;20915;-42
2022/04/25 02:08:20;;;;;;;25.80;15.67;;;8.10;99.90;;;;;;5113373;28;20924;-42
2022/04/25 02:11:19;;;;;;;21.00;15.60;;;7.50;99.90;;;;;;5113458;28;20798;-43
2022/04/25 02:13:35;;;;;;;17.77;14.03;;;8.20;99.90;;;;;;5113189;28;21034;-42
2022/04/25 02:16:03;;;;;;;20.30;16.83;;;8.20;99.90;;;;;;5113262;28;20799;-42
2022/04/25 02:18:30;;;;;;;21.47;15.47;;;7.80;99.90;;;;;;5112871;28;20439;-42
2022/04/25 02:20:56;;;;;;;24.80;15.73;;;8.10;99.90;;;;;;5112745;28;20430;-42
2022/04/25 02:23:23;;;;;;;20.50;15.57;;;8.10;99.90;;;;;;5113005;28;20454;-43
2022/04/25 02:25:50;;;;;;;24.50;16.20;;;8.10;99.90;;;;;;5113142;28;20506;-42
2022/04/25 02:28:17;;;;;;;23.20;15.60;;;7.80;99.90;;;;;;5113047;28;20426;-42
2022/04/25 02:30:45;;;;;;;27.83;16.00;;;8.10;99.90;;;;;;5112855;28;20933;-44
2022/04/25 02:33:11;;;;;;;24.50;15.43;;;7.80;99.90;;;;;;5112660;28;20512;-43
2022/04/25 02:35:38;;;;;;;20.67;16.03;;;8.20;99.90;;;;;;5112960;28;20434;-43
2022/04/25 02:38:05;;;;;;;23.20;15.93;;;7.80;99.90;;;;;;5112816;28;20449;-42
2022/04/25 02:40:31;;;;;;;21.10;16.13;;;7.70;99.90;;;;;;5112512;28;20843;-43
2022/04/25 02:42:58;;;;;;;21.73;16.87;;;8.00;99.90;;;;;;5112871;28;20468;-42
2022/04/25 02:45:24;;;;;;;24.70;17.17;;;7.90;99.90;;;;;;5112637;28;20441;-43
2022/04/25 02:47:53;;;;;;;22.17;15.63;;;7.80;99.90;;;;;;5112594;28;20429;-42
2022/04/25 02:50:19;;;;;;;26.73;17.40;;;7.30;99.90;;;;;;5112413;28;20408;-43
2022/04/25 02:52:46;;;;;;;29.33;18.07;;;7.70;99.90;;;;;;5112418;28;20477;-44
2022/04/25 02:55:13;;;;;;;24.30;18.03;;;7.80;99.90;;;;;;5112561;28;20424;-42
2022/04/25 02:57:39;;;;;;;19.47;16.07;;;7.60;99.90;;;;;;5112603;28;20952;-42
2022/04/25 03:00:07;;;;;;;19.53;17.30;;;7.80;99.90;;;;;;5111924;28;20830;-44
2022/04/25 03:02:33;;;;;;;23.60;16.40;;;7.90;99.90;;;;;;5112249;28;20823;-43
2022/04/25 03:05:01;;;;;;;21.20;15.87;;;7.80;99.90;;;;;;5112320;28;20435;-43
2022/04/25 03:07:28;;;;;;;19.33;17.10;;;8.30;99.90;;;;;;5112296;28;20855;-43
2022/04/25 03:09:54;;;;;;;24.27;18.63;;;7.80;99.90;;;;;;5111918;28;20801;-43
2022/04/25 03:12:21;;;;;;;25.43;18.10;;;7.80;99.90;;;;;;5112375;28;20473;-43
2022/04/25 03:14:48;;;;;;;20.80;17.70;;;8.20;99.90;;;;;;5112239;28;20433;-43
2022/04/25 03:17:14;;;;;;;26.63;17.10;;;7.50;99.90;;;;;;5112114;28;20977;-44
2022/04/25 03:19:41;;;;;;;20.30;16.37;;;7.70;99.90;;;;;;5111832;28;20431;-44
2022/04/25 03:22:09;;;;;;;22.30;17.90;;;7.60;99.90;;;;;;5112285;28;20457;-43
2022/04/25 03:24:35;;;;;;;21.57;16.63;;;7.70;99.90;;;;;;5112143;28;20436;-44
2022/04/25 03:27:02;;;;;;;20.50;17.87;;;7.60;99.90;;;;;;5112196;28;20442;-44
2022/04/25 03:29:29;;;;;;;22.43;16.40;;;7.40;99.90;;;;;;5111606;28;20429;-43
2022/04/25 03:31:56;;;;;;;20.80;16.30;;;7.50;99.90;;;;;;5113044;28;20457;-42
2022/04/25 03:34:22;;;;;;;21.67;16.77;;;6.90;99.90;;;;;;5116393;28;20800;-42
2022/04/25 03:36:51;;;;;;;24.47;17.40;;;7.20;99.90;;;;;;5116328;28;20438;-45
2022/04/25 03:39:19;;;;;;;22.80;16.50;;;7.70;99.90;;;;;;5116101;28;20517;-41
2022/04/25 03:41:47;;;;;;;27.53;17.40;;;7.80;99.90;;;;;;5116116;28;20491;-43
2022/04/25 03:44:14;;;;;;;20.73;16.83;;;7.40;99.90;;;;;;5116299;28;20530;-41
2022/04/25 03:46:41;;;;;;;29.40;16.70;;;7.50;99.90;;;;;;5116363;28;20444;-42
2022/04/25 03:49:07;;;;;;;19.90;16.63;;;7.50;99.90;;;;;;5115693;28;20846;-42
2022/04/25 03:51:34;;;;;;;22.03;16.90;;;7.70;99.90;;;;;;5116029;28;20438;-42
2022/04/25 03:54:01;;;;;;;26.70;18.13;;;7.50;99.90;;;;;;5115934;28;20484;-42
2022/04/25 03:59:13;;;;;;;24.07;17.93;;;7.40;99.90;;;;;;5115534;28;20471;-43
2022/04/25 04:01:39;;;;;;;26.67;18.40;;;7.50;99.90;;;;;;5115711;28;20437;-43
2022/04/25 04:04:06;;;;;;;22.50;16.50;;;7.00;99.90;;;;;;5116544;28;20765;-44
2022/04/25 04:06:33;;;;;;;21.60;17.37;;;7.80;99.90;;;;;;5115941;28;20430;-43
2022/04/25 04:09:44;;;;;;;25.93;16.57;;;7.50;99.90;;;;;;5096879;28;20472;-44
2022/04/25 04:11:48;;;;;;;26.00;16.90;;;7.50;99.90;;;;;;5115600;28;20780;-42
2022/04/25 04:14:15;;;;;;;21.97;17.10;;;7.20;99.90;;;;;;5115560;28;20476;-43
2022/04/25 04:16:42;;;;;;;20.87;17.00;;;7.10;99.90;;;;;;5115496;28;20442;-44
2022/04/25 04:19:10;;;;;;;25.53;15.13;;;7.50;99.90;;;;;;5115294;28;20498;-43
2022/04/25 04:21:36;;;;;;;23.83;17.57;;;7.60;99.90;;;;;;5115395;28;20869;-43
2022/04/25 04:24:03;;;;;;;22.13;16.40;;;7.80;99.90;;;;;;5115319;28;20436;-42
2022/04/25 04:26:30;;;;;;;26.37;16.90;;;7.50;99.90;;;;;;5115496;28;20846;-43
2022/04/25 04:28:58;;;;;;;20.17;15.10;;;8.00;99.90;;;;;;5115080;28;20427;-43
2022/04/25 04:31:24;;;;;;;25.60;17.77;;;7.60;99.90;;;;;;5115365;28;20438;-44
2022/04/25 04:33:51;;;;;;;26.40;17.50;;;7.90;99.90;;;;;;5115037;28;20477;-43
2022/04/25 04:36:22;;;;;;;21.87;16.40;;;7.60;99.90;;;;;;5115193;28;20423;-43
2022/04/25 04:38:49;;;;;;;24.67;16.57;;;7.80;99.90;;;;;;5115070;28;20475;-44
2022/04/25 04:41:15;;;;;;;23.90;16.77;;;7.90;99.90;;;;;;5114945;28;20436;-43
2022/04/25 04:43:42;;;;;;;22.93;15.77;;;7.90;99.90;;;;;;5115284;28;20444;-42
2022/04/25 04:46:10;;;;;;;25.10;17.40;;;7.70;99.90;;;;;;5115180;28;20955;-44
2022/04/25 04:48:37;;;;;;;22.83;16.13;;;7.50;99.90;;;;;;5115105;28;20443;-44
2022/04/25 04:51:03;;;;;;;22.50;16.43;;;7.30;99.90;;;;;;5115176;28;20918;-43
2022/04/25 04:53:30;;;;;;;22.73;17.23;;;7.70;99.90;;;;;;5114714;28;20489;-43
2022/04/25 04:55:56;;;;;;;19.23;16.10;;;7.80;99.90;;;;;;5115064;28;20434;-43
2022/04/25 04:58:23;;;;;;;22.10;16.90;;;7.80;99.90;;;;;;5114848;28;20541;-44
2022/04/25 05:00:50;;;;;;;22.37;16.97;;;7.90;99.90;;;;;;5114835;28;20440;-43
2022/04/25 05:03:19;;;;;;;24.80;16.27;;;8.10;99.90;;;;;;5114826;28;20812;-44
2022/04/25 05:05:46;;;;;;;24.90;16.80;;;7.80;99.90;;;;;;5115052;28;20447;-45
2022/04/25 05:08:12;;;;;;;23.47;15.93;;;8.20;99.90;;;;;;5114536;28;20488;-44
2022/04/25 05:10:40;;;;;;;31.10;19.00;;;8.20;99.90;;;;;;5114298;28;20746;-44
2022/04/25 05:13:07;;;;;;;19.83;15.07;;;8.10;99.90;;;;;;5095623;28;20481;-43
2022/04/25 05:15:33;;;;;;;19.93;15.30;;;8.00;99.90;;;;;;5114175;28;20437;-43
2022/04/25 05:18:00;;;;;;;18.27;14.50;;;7.90;99.90;;;;;;5114444;28;20914;-43
2022/04/25 05:20:29;;;;;;;25.13;13.97;;;8.00;99.90;;;;;;5114251;28;20434;-43
2022/04/25 05:22:57;;;;;;;20.23;14.40;;;8.10;99.90;;;;;;5113850;28;20938;-45
2022/04/25 05:25:25;;;;;;;20.23;14.77;;;8.60;99.90;;;;;;5113895;28;20433;-45
2022/04/25 05:27:53;;;;;;;18.87;13.27;;;8.10;99.90;;;;;;5114273;28;20443;-44
2022/04/25 05:30:22;;;;;;;17.97;14.30;;;8.40;99.90;;;;;;5113442;28;20910;-45
2022/04/25 05:32:50;;;;;;;24.00;14.43;;;7.70;99.90;;;;;;5113774;28;20481;-43
2022/04/25 05:35:18;;;;;;;17.37;13.77;;;8.10;99.90;;;;;;5113482;28;20939;-45
2022/04/25 05:37:46;;;;;;;17.43;13.67;;;8.20;99.90;;;;;;5113560;28;20479;-42
2022/04/25 05:40:14;;;;;;;18.40;12.87;;;8.50;99.90;;;;;;5112970;28;20455;-44
2022/04/25 05:42:42;;;;;;;19.53;13.30;;;8.60;99.90;;;;;;5112962;28;20465;-44
2022/04/25 05:45:10;;;;;;;15.50;12.23;;;8.40;99.90;;;;;;5113513;28;20427;-44
2022/04/25 05:47:38;;;;;;;15.03;11.90;;;8.60;99.90;;;;;;5113415;28;20533;-42
2022/04/25 05:52:53;;;;;;;13.30;10.80;;;8.40;99.90;;;;;;5113105;28;20457;-45
2022/04/25 05:55:20;;;;;;;14.73;11.20;;;8.60;99.90;;;;;;5112436;28;20481;-44
2022/04/25 05:57:46;;;;;;;14.07;10.60;;;8.70;99.90;;;;;;5113298;28;20784;-45
2022/04/25 06:00:14;;;;;;;13.20;11.40;;;8.50;99.90;;;;;;5112878;28;20430;-44
2022/04/25 06:02:42;;;;;;;12.67;9.40;;;8.70;99.90;;;;;;5113117;28;20477;-42
2022/04/25 06:05:11;;;;;;;12.63;10.10;;;8.50;99.90;;;;;;5113017;28;20783;-46
2022/04/25 06:07:40;;;;;;;12.83;10.10;;;8.50;99.90;;;;;;5112962;28;20782;-44
2022/04/25 06:10:09;;;;;;;10.70;9.60;;;8.80;99.90;;;;;;5112762;28;20430;-43
2022/04/25 06:12:39;;;;;;;12.63;9.67;;;8.20;99.90;;;;;;5112805;28;20962;-44
2022/04/25 06:15:07;;;;;;;12.93;10.20;;;9.30;99.90;;;;;;5113074;28;20455;-42
2022/04/25 06:17:34;;;;;;;14.67;11.20;;;8.50;99.90;;;;;;5112688;28;20440;-43
2022/04/25 06:20:00;;;;;;;15.20;9.73;;;8.80;99.90;;;;;;5112517;28;20422;-43
2022/04/25 06:22:27;;;;;;;12.27;10.00;;;8.80;99.90;;;;;;5112641;28;20448;-46
2022/04/25 06:24:54;;;;;;;12.97;9.37;;;9.10;99.90;;;;;;5112980;28;20433;-43
2022/04/25 06:27:22;;;;;;;12.00;9.80;;;9.30;99.90;;;;;;5112683;28;20447;-44
2022/04/25 06:29:48;;;;;;;15.47;10.40;;;8.90;99.90;;;;;;5112058;28;21002;-45
2022/04/25 06:32:15;;;;;;;13.70;10.43;;;8.80;99.90;;;;;;5112810;28;20469;-43
2022/04/25 06:34:42;;;;;;;14.13;9.10;;;9.10;99.90;;;;;;5112454;28;20475;-44
2022/04/25 06:37:09;;;;;;;13.60;9.17;;;9.60;99.90;;;;;;5112531;28;20852;-44
2022/04/25 06:39:35;;;;;;;15.37;10.50;;;9.20;99.90;;;;;;5112066;28;20443;-45
2022/04/25 06:42:02;;;;;;;14.10;8.87;;;8.70;99.90;;;;;;5112428;28;20986;-44
2022/04/25 06:44:30;;;;;;;12.77;9.60;;;9.70;99.90;;;;;;5112689;28;20436;-42
2022/04/25 06:46:57;;;;;;;11.50;9.57;;;9.40;99.90;;;;;;5112346;28;20955;-43
2022/04/25 06:49:27;;;;;;;9.40;8.40;;;9.40;99.90;;;;;;5111835;28;20519;-43
2022/04/25 06:51:57;;;;;;;12.63;8.80;;;8.60;99.90;;;;;;5112309;28;20456;-45
2022/04/25 06:54:24;;;;;;;10.10;8.63;;;9.20;99.90;;;;;;5112475;28;20472;-42
2022/04/25 06:56:52;;;;;;;11.87;8.97;;;9.50;99.90;;;;;;5112822;28;20456;-44
2022/04/25 06:59:19;;;;;;;13.20;8.90;;;9.30;99.90;;;;;;5112198;28;20435;-45
2022/04/25 07:01:47;;;;;;;19.27;10.00;;;9.30;99.90;;;;;;5113027;28;20839;-42
2022/04/25 07:04:14;;;;;;;12.20;8.57;;;9.70;99.90;;;;;;5112419;28;20884;-42
2022/04/25 07:06:42;;;;;;;12.93;9.27;;;9.50;99.90;;;;;;5112296;28;20424;-42
2022/04/25 07:09:12;;;;;;;12.63;8.43;;;9.30;99.90;;;;;;5112029;28;20518;-44
2022/04/25 07:11:43;;;;;;;10.33;8.37;;;9.30;99.90;;;;;;5112521;28;20493;-43
2022/04/25 07:14:10;;;;;;;11.70;9.13;;;10.00;99.90;;;;;;5112630;28;20542;-43
2022/04/25 07:16:37;;;;;;;10.97;8.90;;;9.40;99.90;;;;;;5112531;28;20803;-43
2022/04/25 07:19:05;;;;;;;18.37;8.90;;;8.80;99.90;;;;;;5111603;28;20428;-43
2022/04/25 07:29:47;;;;;;;12.70;8.00;;;9.30;99.90;;;;;;5112514;28;20416;-43
2022/04/25 07:32:14;;;;;;;10.43;9.13;;;9.70;99.90;;;;;;5111773;28;20551;-44
2022/04/25 07:34:43;;;;;;;12.50;9.43;;;9.50;99.90;;;;;;5111618;28;20486;-44
2022/04/25 07:37:10;;;;;;;9.23;8.20;;;9.60;99.90;;;;;;5111594;28;20424;-44
2022/04/25 07:39:37;;;;;;;10.90;7.73;;;10.00;99.90;;;;;;5112134;28;20444;-45
2022/04/25 07:42:04;;;;;;;10.33;6.63;;;9.50;99.90;;;;;;5111991;28;20455;-44
2022/04/25 07:44:31;;;;;;;10.30;7.80;;;9.70;99.90;;;;;;5112998;28;20427;-43
2022/04/25 07:46:58;;;;;;;11.97;7.10;;;10.00;99.90;;;;;;5111620;28;20435;-44
2022/04/25 07:49:25;;;;;;;12.00;7.40;;;9.30;99.90;;;;;;5111290;28;20852;-44
2022/04/25 07:51:54;;;;;;;10.60;7.20;;;9.60;99.90;;;;;;5111637;28;20420;-44
2022/04/25 07:54:20;;;;;;;7.30;6.60;;;10.30;99.90;;;;;;5111794;28;20486;-43
2022/04/25 07:56:47;;;;;;;12.60;7.77;;;9.90;99.90;;;;;;5112079;28;20432;-41
2022/04/25 07:59:14;;;;;;;9.90;7.43;;;9.90;99.90;;;;;;5111536;28;20518;-44
2022/04/25 08:01:41;;;;;;;9.43;7.67;;;9.90;99.90;;;;;;5093292;28;21012;-43
2022/04/25 08:04:07;;;;;;;10.73;7.63;;;9.70;99.90;;;;;;5111926;28;20421;-44
2022/04/25 08:06:34;;;;;;;11.57;6.90;;;9.80;99.90;;;;;;5111162;28;20428;-43
2022/04/25 08:09:03;;;;;;;11.97;7.60;;;10.30;99.90;;;;;;5110409;28;20432;-42
2022/04/25 08:11:30;;;;;;;10.17;7.00;;;10.40;99.90;;;;;;5110969;28;20435;-44
2022/04/25 08:19:25;;;;;;;17.43;7.03;;;10.70;99.90;;;;;;5113473;28;20790;-43
2022/04/25 08:21:53;;;;;;;9.20;6.40;;;10.20;99.90;;;;;;5095859;28;20562;-43
2022/04/25 08:24:21;;;;;;;8.63;6.30;;;10.60;99.90;;;;;;5114239;28;20435;-44
2022/04/25 08:26:47;;;;;;;10.60;7.10;;;10.50;99.90;;;;;;5115419;28;20428;-42
2022/04/25 08:29:14;;;;;;;9.50;6.07;;;10.60;99.90;;;;;;5114054;28;20817;-45
2022/04/25 08:31:40;;;;;;;6.63;6.00;;;10.60;99.90;;;;;;5113952;28;20436;-44
2022/04/25 08:34:09;;;;;;;8.20;6.40;;;11.00;99.90;;;;;;5113951;28;20487;-44
2022/04/25 08:36:36;;;;;;;7.23;6.50;;;11.50;99.90;;;;;;5113869;28;20936;-44
2022/04/25 08:39:04;;;;;;;8.00;6.37;;;11.20;99.90;;;;;;5113687;28;20442;-43
2022/04/25 08:41:36;;;;;;;9.33;6.23;;;11.10;99.90;;;;;;5113647;28;20544;-46
2022/04/25 08:44:05;;;;;;;12.27;6.90;;;11.20;99.90;;;;;;5113746;28;20436;-43
2022/04/25 08:46:36;;;;;;;8.60;6.60;;;11.30;99.90;;;;;;5114254;28;20433;-42
2022/04/25 08:49:04;;;;;;;11.30;6.20;;;11.30;99.90;;;;;;5113696;28;20489;-44
2022/04/25 08:51:34;;;;;;;9.73;6.00;;;11.30;99.90;;;;;;5113792;28;20465;-44
2022/04/25 08:54:02;;;;;;;16.40;6.60;;;12.10;99.90;;;;;;5114247;28;20473;-44
2022/04/25 08:56:29;;;;;;;9.43;6.00;;;11.60;99.90;;;;;;5113881;28;20431;-42
2022/04/25 08:58:59;;;;;;;16.53;6.60;;;12.10;99.90;;;;;;5114128;28;20431;-43
2022/04/25 09:01:26;;;;;;;6.80;5.30;;;11.50;99.90;;;;;;5114091;28;20499;-43
2022/04/25 09:03:53;;;;;;;16.13;6.93;;;12.20;99.90;;;;;;5091896;28;128948;-43
2022/04/25 09:06:20;;;;;;;8.70;6.33;;;11.70;99.90;;;;;;5114735;28;20513;-44
2022/04/25 09:08:47;;;;;;;11.10;5.80;;;11.90;99.90;;;;;;5113868;28;20512;-43
2022/04/25 09:14:00;;;;;;;9.97;5.33;;;11.90;99.90;;;;;;5114565;28;20483;-44
2022/04/25 09:16:26;;;;;;;10.87;6.13;;;11.50;99.90;;;;;;5115079;28;20449;-43
2022/04/25 09:18:53;;;;;;;11.80;6.43;;;11.80;99.90;;;;;;5114062;28;20437;-42
2022/04/25 09:21:19;;;;;;;7.17;4.80;;;11.60;99.90;;;;;;5114724;28;20447;-43
2022/04/25 09:23:46;;;;;;;9.93;5.97;;;11.30;99.90;;;;;;5115391;28;20449;-44
2022/04/25 09:26:16;;;;;;;13.63;8.57;;;11.50;99.90;;;;;;5115088;28;20761;-43
2022/04/25 09:28:47;;;;;;;13.90;8.80;;;11.90;99.90;;;;;;5113806;28;20444;-42
2022/04/25 09:31:16;;;;;;;6.93;4.80;;;11.60;99.90;;;;;;5113627;28;20429;-44
2022/04/25 09:33:43;;;;;;;15.87;5.57;;;11.50;99.90;;;;;;5114537;28;20455;-43
2022/04/25 09:36:10;;;;;;;9.27;4.43;;;11.80;99.90;;;;;;5114064;28;20427;-43
2022/04/25 09:38:38;;;;;;;5.97;4.60;;;11.80;99.90;;;;;;5113098;28;20447;-43
2022/04/25 09:41:07;;;;;;;6.20;5.00;;;11.80;99.90;;;;;;5113980;28;20425;-43
2022/04/25 09:43:35;;;;;;;7.97;5.63;;;11.80;99.90;;;;;;5114003;28;20462;-44
2022/04/25 09:46:03;;;;;;;6.80;4.40;;;12.00;99.90;;;;;;5113704;28;20485;-45
2022/04/25 09:48:31;;;;;;;8.47;5.40;;;11.80;99.90;;;;;;5113069;28;20432;-45
2022/04/25 09:51:03;;;;;;;5.50;4.50;;;12.50;99.90;;;;;;5114059;28;20958;-44
2022/04/25 09:53:43;;;;;;;11.97;6.90;;;12.60;99.90;;;;;;5095371;28;20466;-43
2022/04/25 09:56:12;;;;;;;8.10;4.77;;;13.00;99.90;;;;;;5095275;28;20483;-42
2022/04/25 09:58:40;;;;;;;6.00;4.80;;;12.70;99.70;;;;;;5111487;28;20442;-44
2022/04/25 10:01:14;;;;;;;5.60;4.33;;;12.50;99.30;;;;;;5110227;28;20472;-44
2022/04/25 10:03:43;;;;;;;8.40;4.80;;;12.90;99.40;;;;;;5097069;28;20555;-47
2022/04/25 10:06:10;;;;;;;6.60;5.07;;;12.60;99.10;;;;;;5116033;28;20428;-45
2022/04/25 10:08:37;;;;;;;7.27;4.33;;;12.90;99.10;;;;;;5115374;28;20434;-46
2022/04/25 10:11:06;;;;;;;6.50;4.73;;;12.70;98.90;;;;;;5115995;28;20816;-45
2022/04/25 10:13:34;;;;;;;8.03;5.03;;;13.00;98.70;;;;;;5096223;28;20501;-45
2022/04/25 10:16:02;;;;;;;6.10;3.93;;;13.20;98.30;;;;;;5115008;28;20483;-45
2022/04/25 10:18:30;;;;;;;5.10;4.60;;;13.30;97.90;;;;;;5114428;28;20424;-45
2022/04/25 10:21:00;;;;;;;5.17;4.30;;;13.10;97.50;;;;;;5114452;28;20429;-45
2022/04/25 10:23:27;;;;;;;9.53;4.27;;;13.30;97.40;;;;;;5115509;28;20448;-43
2022/04/25 10:25:55;;;;;;;5.60;4.30;;;13.00;97.60;;;;;;5114604;28;20887;-45
2022/04/25 10:28:27;;;;;;;9.03;4.57;;;12.60;97.50;;;;;;5114268;28;20460;-46
2022/04/25 10:30:59;;;;;;;5.63;4.40;;;12.70;97.70;;;;;;5096727;28;20484;-44
2022/04/25 10:33:28;;;;;;;8.30;4.77;;;13.10;98.00;;;;;;5096348;28;20460;-43
2022/04/25 10:35:55;;;;;;;9.00;4.83;;;13.10;98.10;;;;;;5114812;28;20492;-45
2022/04/25 10:38:49;;;;;;;6.80;5.50;;;13.10;98.00;;;;;;5115149;28;20509;-46
2022/04/25 10:44:46;;;;;;;6.33;4.53;;;13.10;97.80;;;;;;5115936;28;20434;-44
2022/04/25 10:47:14;;;;;;;8.90;4.60;;;13.20;97.70;;;;;;5115679;28;20508;-45
2022/04/25 10:49:42;;;;;;;6.83;4.27;;;13.20;97.40;;;;;;5114795;28;20465;-44
2022/04/25 10:52:44;;;;;;;6.60;4.20;;;13.50;97.50;;;;;;5115598;28;20556;-45
2022/04/25 10:55:19;;;;;;;5.40;3.67;;;13.40;97.20;;;;;;5115287;28;20470;-44
2022/04/25 10:58:11;;;;;;;6.20;4.20;;;13.20;97.00;;;;;;5115130;28;20760;-44
2022/04/25 11:00:55;;;;;;;7.00;4.07;;;13.40;97.00;;;;;;5114605;28;20489;-45
2022/04/25 11:03:27;;;;;;;4.80;4.30;;;13.30;96.70;;;;;;5115665;28;20460;-44
2022/04/25 11:05:55;;;;;;;5.07;3.83;;;13.20;96.90;;;;;;5115157;28;20434;-45
2022/04/25 11:08:31;;;;;;;6.97;4.63;;;13.80;97.20;;;;;;5115000;28;20437;-50
2022/04/25 11:11:08;;;;;;;5.23;3.93;;;13.30;96.50;;;;;;5114489;28;20454;-45
2022/04/25 11:13:36;;;;;;;6.23;3.83;;;13.80;96.70;;;;;;5115667;28;21028;-45
2022/04/25 11:16:18;;;;;;;8.63;4.20;;;13.70;96.50;;;;;;5115515;28;20479;-45
2022/04/25 11:18:45;;;;;;;6.33;3.50;;;14.30;96.30;;;;;;5114716;28;20464;-46
2022/04/25 11:21:14;;;;;;;5.17;3.90;;;13.80;95.60;;;;;;5114975;28;20503;-44
2022/04/25 11:23:50;;;;;;;4.43;3.77;;;13.30;95.40;;;;;;5114943;28;20984;-43
2022/04/25 11:26:55;;;;;;;7.50;4.80;;;13.60;95.40;;;;;;5114474;28;20445;-45
2022/04/25 11:29:22;;;;;;;6.77;4.00;;;13.70;95.70;;;;;;5113438;28;20931;-45
2022/04/25 11:31:49;;;;;;;4.00;3.57;;;13.50;95.60;;;;;;5113645;28;20482;-46
2022/04/25 11:34:20;;;;;;;5.50;4.70;;;13.60;95.70;;;;;;5113709;28;20500;-45
2022/04/25 11:36:47;;;;;;;6.63;4.10;;;13.60;95.80;;;;;;5113766;28;20434;-47
2022/04/25 11:42:00;;;;;;;5.83;3.87;;;14.20;95.60;;;;;;5114950;28;20453;-44
2022/04/25 11:44:27;;;;;;;5.07;4.23;;;14.00;95.30;;;;;;5114781;28;20430;-46
2022/04/25 11:46:54;;;;;;;6.93;4.67;;;14.10;95.10;;;;;;5115091;28;20450;-44
2022/04/25 11:49:28;;;;;;;5.20;3.80;;;14.00;95.00;;;;;;5113293;28;20427;-46
2022/04/25 11:51:58;;;;;;;9.80;6.30;;;14.00;95.10;;;;;;5113676;28;20447;-45
2022/04/25 11:54:25;;;;;;;5.63;3.80;;;14.10;95.10;;;;;;5116830;28;20439;-44
2022/04/25 11:56:52;;;;;;;6.27;4.00;;;14.40;95.00;;;;;;5117295;28;20464;-45
2022/04/25 11:59:20;;;;;;;6.27;4.30;;;14.40;94.90;;;;;;5117144;28;20448;-43
2022/04/25 12:01:48;;;;;;;5.30;4.40;;;14.20;94.60;;;;;;5117618;28;20545;-44
2022/04/25 12:04:20;;;;;;;9.07;4.00;;;14.40;94.60;;;;;;5118438;28;20763;-45
2022/04/25 12:06:52;;;;;;;6.57;3.90;;;14.10;94.40;;;;;;5117338;28;20427;-46
2022/04/25 12:17:38;;;;;;;3.90;3.40;;;14.70;94.20;;;;;;5117476;28;20423;-45
2022/04/25 12:20:07;;;;;;;4.63;4.17;;;14.50;93.90;;;;;;5116660;28;20466;-46
2022/04/25 12:22:34;;;;;;;7.17;4.53;;;14.30;93.60;;;;;;5117260;28;20492;-45
2022/04/25 12:25:18;;;;;;;6.70;4.53;;;14.00;93.50;;;;;;5117263;28;20438;-45
2022/04/25 12:28:06;;;;;;;9.20;4.47;;;14.80;93.70;;;;;;5116688;28;20443;-46
2022/04/25 12:30:45;;;;;;;10.90;4.60;;;14.60;93.70;;;;;;5116954;28;20442;-46
2022/04/25 12:33:14;;;;;;;5.03;4.53;;;15.00;93.60;;;;;;5117145;28;20973;-44
2022/04/25 12:35:42;;;;;;;9.60;4.77;;;14.70;93.40;;;;;;5117371;28;20485;-44
2022/04/25 12:38:09;;;;;;;9.50;5.23;;;14.80;93.20;;;;;;5117160;28;20792;-45
2022/04/25 12:40:54;;;;;;;6.87;4.90;;;14.80;93.10;;;;;;5116622;28;20428;-48
2022/04/25 12:43:37;;;;;;;5.63;4.63;;;14.90;93.10;;;;;;5117219;28;20494;-46
2022/04/25 12:46:06;;;;;;;8.67;5.40;;;14.90;92.80;;;;;;5114277;28;20443;-46
2022/04/25 12:48:58;;;;;;;9.60;5.13;;;14.90;93.00;;;;;;5116240;28;20443;-45
2022/04/25 12:51:36;;;;;;;8.70;4.77;;;15.00;92.60;;;;;;5117305;28;20436;-45
2022/04/25 12:54:05;;;;;;;6.63;4.43;;;15.00;92.50;;;;;;5116769;28;20531;-44
2022/04/25 12:56:35;;;;;;;5.67;5.07;;;15.00;92.60;;;;;;5115582;28;20482;-46
2022/04/25 12:59:02;;;;;;;6.83;4.40;;;15.10;92.50;;;;;;5115264;28;20951;-45
2022/04/25 13:01:33;;;;;;;5.87;5.10;;;15.00;92.10;;;;;;5115514;28;20530;-45
2022/04/25 13:04:12;;;;;;;5.30;4.80;;;15.00;91.40;;;;;;5115864;28;20849;-45
2022/04/25 13:06:39;;;;;;;5.40;4.90;;;14.60;91.20;;;;;;5115606;28;20455;-47
2022/04/25 13:09:07;;;;;;;6.17;5.00;;;14.80;91.20;;;;;;5115341;28;20521;-44
2022/04/25 13:11:34;;;;;;;7.67;5.27;;;15.30;91.30;;;;;;5115937;28;20473;-44
2022/04/25 13:14:02;;;;;;;6.77;4.57;;;14.60;91.10;;;;;;5117235;28;20441;-45
2022/04/25 13:16:29;;;;;;;10.70;5.43;;;15.30;91.50;;;;;;5115483;28;20483;-44
2022/04/25 13:18:57;;;;;;;6.80;4.57;;;15.30;91.40;;;;;;5115815;28;20464;-45
2022/04/25 13:21:24;;;;;;;8.53;6.90;;;15.10;90.70;;;;;;5115887;28;20436;-45
2022/04/25 13:23:51;;;;;;;5.10;4.60;;;15.10;90.80;;;;;;5115523;28;20448;-44
2022/04/25 13:26:18;;;;;;;7.13;4.83;;;15.00;90.60;;;;;;5116148;28;20452;-49
2022/04/25 13:28:45;;;;;;;5.27;4.27;;;15.20;90.90;;;;;;5115751;28;20428;-44